createdAt,value
2023-01-05T00:01:53.571Z,100.00
2023-01-05T00:04:21.612Z,100.00
2023-01-05T00:06:49.443Z,100.00
2023-01-05T00:09:18.996Z,100.00
2023-01-05T00:12:04.435Z,100.00
2023-01-05T00:14:52.023Z,100.00
2023-01-05T00:17:41.899Z,100.00
2023-01-05T00:20:33.085Z,100.00
2023-01-05T00:23:00.655Z,100.00
2023-01-05T00:25:29.958Z,100.00
2023-01-05T00:27:58.656Z,100.00
2023-01-05T00:30:30.111Z,100.00
2023-01-05T00:32:58.359Z,100.00
2023-01-05T00:35:28.179Z,100.00
2023-01-05T00:38:32.741Z,100.00
2023-01-05T00:41:01.100Z,100.00
2023-01-05T00:43:28.686Z,100.00
2023-01-05T00:45:57.894Z,100.00
2023-01-05T00:48:25.408Z,100.00
2023-01-05T00:50:52.928Z,100.00
2023-01-05T00:53:20.529Z,100.00
2023-01-05T00:55:58.006Z,100.00
2023-01-05T00:58:26.242Z,100.00
2023-01-05T01:03:36.741Z,100.00
2023-01-05T01:06:04.375Z,100.00
2023-01-05T01:08:31.972Z,100.00
2023-01-05T01:11:04.809Z,100.00
2023-01-05T01:13:32.581Z,100.00
2023-01-05T01:16:07.518Z,100.00
2023-01-05T01:18:36.652Z,100.00
2023-01-05T01:21:04.722Z,100.00
2023-01-05T01:23:33.984Z,100.00
2023-01-05T01:26:05.061Z,100.00
2023-01-05T01:28:32.775Z,100.00
2023-01-05T01:31:00.436Z,100.00
2023-01-05T01:33:28.635Z,100.00
2023-01-05T01:35:57.493Z,100.00
2023-01-05T01:38:25.691Z,100.00
2023-01-05T01:40:53.186Z,100.00
2023-01-05T01:43:39.539Z,100.00
2023-01-05T01:46:08.048Z,100.00
2023-01-05T01:48:36.347Z,100.00
2023-01-05T01:51:08.481Z,100.00
2023-01-05T01:53:38.904Z,100.00
2023-01-05T01:56:36.024Z,100.00
2023-01-05T01:59:03.879Z,100.00
2023-01-05T02:01:31.944Z,100.00
2023-01-05T02:03:59.866Z,100.00
2023-01-05T02:06:28.916Z,100.00
2023-01-05T02:08:56.695Z,100.00
2023-01-05T02:11:36.382Z,100.00
2023-01-05T02:14:13.199Z,100.00
2023-01-05T02:16:52.938Z,100.00
2023-01-05T02:20:08.691Z,100.00
2023-01-05T02:22:54.139Z,100.00
2023-01-05T02:25:40.723Z,100.00
2023-01-05T02:28:18.596Z,99.93
2023-01-05T02:31:00.447Z,100.00
2023-01-05T02:33:54.745Z,100.00
2023-01-05T02:36:35.936Z,100.00
2023-01-05T02:39:10.251Z,100.00
2023-01-05T02:41:43.002Z,100.00
2023-01-05T02:44:11.592Z,100.00
2023-01-05T02:46:41.197Z,100.00
2023-01-05T02:49:09.084Z,100.00
2023-01-05T02:51:40.196Z,100.00
2023-01-05T02:54:13.320Z,100.00
2023-01-05T02:56:46.253Z,100.00
2023-01-05T02:59:17.650Z,100.00
2023-01-05T03:01:58.190Z,100.00
2023-01-05T03:04:33.831Z,100.00
2023-01-05T03:07:07.154Z,100.00
2023-01-05T03:09:37.478Z,100.00
2023-01-05T03:12:31.456Z,100.00
2023-01-05T03:15:09.272Z,100.00
2023-01-05T03:17:46.865Z,100.00
2023-01-05T03:20:18.652Z,100.00
2023-01-05T03:23:06.062Z,100.00
2023-01-05T03:25:57.960Z,100.00
2023-01-05T03:28:49.711Z,100.00
2023-01-05T03:31:44.292Z,100.00
2023-01-05T03:34:36.647Z,100.00
2023-01-05T03:37:07.188Z,100.00
2023-01-05T03:39:37.041Z,100.00
2023-01-05T03:42:10.436Z,100.00
2023-01-05T03:44:39.191Z,100.00
2023-01-05T03:47:09.539Z,100.00
2023-01-05T03:49:42.244Z,100.00
2023-01-05T03:52:10.401Z,100.00
2023-01-05T03:54:43.856Z,100.00
2023-01-05T03:57:11.878Z,100.00
2023-01-05T03:59:39.951Z,100.00
2023-01-05T04:02:07.746Z,100.00
2023-01-05T04:04:36.127Z,100.00
2023-01-05T04:07:10.729Z,100.00
2023-01-05T04:09:41.096Z,100.00
2023-01-05T04:12:09.843Z,100.00
2023-01-05T04:14:41.397Z,100.00
2023-01-05T04:17:09.387Z,100.00
2023-01-05T04:19:38.717Z,100.00
2023-01-05T04:22:10.201Z,100.00
2023-01-05T04:24:38.388Z,100.00
2023-01-05T04:27:06.277Z,100.00
2023-01-05T04:29:37.491Z,100.00
2023-01-05T04:32:09.445Z,100.00
2023-01-05T04:34:38.831Z,100.00
2023-01-05T04:37:09.072Z,100.00
2023-01-05T04:39:38.278Z,100.00
2023-01-05T04:42:06.446Z,100.00
2023-01-05T04:44:37.647Z,100.00
2023-01-05T04:47:07.016Z,100.00
2023-01-05T04:49:41.161Z,100.00
2023-01-05T04:52:12.018Z,100.00
2023-01-05T04:54:39.572Z,100.00
2023-01-05T04:57:11.456Z,100.00
2023-01-05T04:59:54.793Z,100.00
2023-01-05T05:02:25.599Z,100.00
2023-01-05T05:04:53.388Z,100.00
2023-01-05T05:07:27.350Z,100.00
2023-01-05T05:09:55.061Z,100.00
2023-01-05T05:12:22.912Z,100.00
2023-01-05T05:14:52.567Z,100.00
2023-01-05T05:17:20.809Z,100.00
2023-01-05T05:19:53.426Z,100.00
2023-01-05T05:22:24.344Z,100.00
2023-01-05T05:24:52.273Z,100.00
2023-01-05T05:27:20.258Z,100.00
2023-01-05T05:29:50.669Z,100.00
2023-01-05T05:32:18.883Z,100.00
2023-01-05T05:34:46.442Z,100.00
2023-01-05T05:37:14.037Z,100.00
2023-01-05T05:39:45.477Z,100.00
2023-01-05T05:42:15.137Z,100.00
2023-01-05T05:44:42.690Z,100.00
2023-01-05T05:47:10.856Z,100.00
2023-01-05T05:49:39.616Z,99.53
2023-01-05T05:52:07.498Z,100.00
2023-01-05T05:54:35.784Z,100.00
2023-01-05T05:57:33.768Z,99.62
2023-01-05T06:00:04.160Z,99.49
2023-01-05T06:02:40.855Z,99.76
2023-01-05T06:05:10.977Z,99.46
2023-01-05T06:07:38.549Z,99.52
2023-01-05T06:10:07.601Z,99.97
2023-01-05T06:12:38.956Z,99.67
2023-01-05T06:15:11.062Z,99.81
2023-01-05T06:17:38.861Z,100.00
2023-01-05T06:20:11.493Z,99.19
2023-01-05T06:22:40.497Z,99.86
2023-01-05T06:25:11.577Z,100.00
2023-01-05T06:27:41.159Z,100.00
2023-01-05T06:30:13.285Z,100.00
2023-01-05T06:32:42.545Z,100.00
2023-01-05T06:35:12.472Z,100.00
2023-01-05T06:37:43.152Z,100.00
2023-01-05T06:40:13.799Z,100.00
2023-01-05T06:42:43.435Z,100.00
2023-01-05T06:45:13.653Z,100.00
2023-01-05T06:47:41.423Z,100.00
2023-01-05T06:50:10.207Z,100.00
2023-01-05T06:53:12.759Z,100.00
2023-01-05T06:55:41.413Z,100.00
2023-01-05T06:58:10.599Z,100.00
2023-01-05T07:00:40.027Z,100.00
2023-01-05T07:03:10.682Z,100.00
2023-01-05T07:05:38.361Z,100.00
2023-01-05T07:08:07.962Z,100.00
2023-01-05T07:10:35.580Z,100.00
2023-01-05T07:13:03.205Z,100.00
2023-01-05T07:15:35.295Z,100.00
2023-01-05T07:18:02.828Z,100.00
2023-01-05T07:20:30.300Z,100.00
2023-01-05T07:22:57.825Z,100.00
2023-01-05T07:25:31.176Z,100.00
2023-01-05T07:28:01.514Z,100.00
2023-01-05T07:30:29.014Z,100.00
2023-01-05T07:33:00.362Z,100.00
2023-01-05T07:35:28.400Z,100.00
2023-01-05T07:37:56.982Z,100.00
2023-01-05T07:40:24.947Z,100.00
2023-01-05T07:42:57.949Z,100.00
2023-01-05T07:45:31.523Z,100.00
2023-01-05T07:48:02.593Z,100.00
2023-01-05T07:50:32.115Z,100.00
2023-01-05T07:52:59.672Z,100.00
2023-01-05T07:55:27.605Z,100.00
2023-01-05T07:57:56.673Z,100.00
2023-01-05T08:04:42.056Z,100.00
2023-01-05T08:12:59.914Z,100.00
2023-01-05T08:15:54.091Z,100.00
2023-01-05T08:19:07.784Z,100.00
2023-01-05T08:21:56.651Z,100.00
2023-01-05T08:24:27.934Z,100.00
2023-01-05T08:26:57.820Z,100.00
2023-01-05T08:29:25.545Z,100.00
2023-01-05T08:31:53.301Z,100.00
2023-01-05T08:34:20.986Z,100.00
2023-01-05T08:36:50.128Z,100.00
2023-01-05T08:39:17.987Z,100.00
2023-01-05T08:41:48.827Z,100.00
2023-01-05T08:47:54.705Z,100.00
2023-01-05T08:50:30.219Z,100.00
2023-01-05T08:53:12.178Z,100.00
2023-01-05T08:56:03.481Z,100.00
2023-01-05T08:58:34.067Z,100.00
2023-01-05T09:01:08.634Z,100.00
2023-01-05T09:03:44.214Z,100.00
2023-01-05T09:06:21.341Z,100.00
2023-01-05T09:08:55.096Z,100.00
2023-01-05T09:11:25.560Z,100.00
2023-01-05T09:13:55.530Z,100.00
2023-01-05T09:19:22.390Z,100.00
2023-01-05T09:21:50.412Z,100.00
2023-01-05T09:24:20.782Z,100.00
2023-01-05T09:26:50.973Z,100.00
2023-01-05T09:29:25.348Z,100.00
2023-01-05T09:31:55.691Z,100.00
2023-01-05T09:34:24.114Z,100.00
2023-01-05T09:36:51.847Z,100.00
2023-01-05T09:39:24.165Z,100.00
2023-01-05T09:41:54.061Z,100.00
2023-01-05T09:44:30.484Z,100.00
2023-01-05T09:47:01.913Z,100.00
2023-01-05T09:49:29.827Z,100.00
2023-01-05T09:52:01.839Z,100.00
2023-01-05T09:54:34.652Z,100.00
2023-01-05T09:57:10.706Z,100.00
2023-01-05T09:59:40.203Z,100.00
2023-01-05T10:02:17.782Z,100.00
2023-01-05T10:04:45.461Z,100.00
2023-01-05T10:07:20.737Z,100.00
2023-01-05T10:09:51.033Z,100.00
2023-01-05T10:12:43.883Z,100.00
2023-01-05T10:15:14.936Z,100.00
2023-01-05T10:17:44.701Z,100.00
2023-01-05T10:20:18.036Z,100.00
2023-01-05T10:22:55.871Z,100.00
2023-01-05T10:25:34.856Z,100.00
2023-01-05T10:28:10.380Z,100.00
2023-01-05T10:30:46.262Z,100.00
2023-01-05T10:33:40.345Z,100.00
2023-01-05T10:36:16.520Z,100.00
2023-01-05T10:38:50.839Z,100.00
2023-01-05T10:41:24.545Z,100.00
2023-01-05T10:44:01.776Z,100.00
2023-01-05T10:46:36.548Z,100.00
2023-01-05T10:49:07.262Z,100.00
2023-01-05T10:51:35.552Z,100.00
2023-01-05T10:54:03.939Z,100.00
2023-01-05T10:56:37.020Z,100.00
2023-01-05T10:59:11.130Z,99.47
2023-01-05T11:01:39.853Z,99.54
2023-01-05T11:07:04.736Z,98.87
2023-01-05T11:09:32.403Z,98.09
2023-01-05T11:12:04.769Z,97.73
2023-01-05T11:14:45.979Z,97.75
2023-01-05T11:17:17.969Z,96.87
2023-01-05T11:19:46.782Z,96.98
2023-01-05T11:22:31.791Z,96.60
2023-01-05T11:25:29.739Z,96.58
2023-01-05T11:28:11.862Z,95.98
2023-01-05T11:30:48.508Z,97.05
2023-01-05T11:33:25.439Z,97.19
2023-01-05T11:35:54.492Z,96.80
2023-01-05T11:38:25.240Z,97.30
2023-01-05T11:40:56.124Z,96.91
2023-01-05T11:43:26.948Z,96.42
2023-01-05T11:45:56.011Z,96.39
2023-01-05T11:48:27.400Z,97.06
2023-01-05T11:50:56.343Z,97.76
2023-01-05T11:53:37.550Z,97.15
2023-01-05T11:56:19.518Z,96.91
2023-01-05T11:58:49.459Z,96.55
2023-01-05T12:01:38.721Z,98.25
2023-01-05T12:04:20.201Z,98.46
2023-01-05T12:07:12.889Z,98.84
2023-01-05T12:09:42.998Z,98.88
2023-01-05T12:12:20.131Z,99.07
2023-01-05T12:14:59.169Z,100.00
2023-01-05T12:17:31.248Z,100.00
2023-01-05T12:20:14.375Z,100.00
2023-01-05T12:23:11.979Z,100.00
2023-01-05T12:25:56.981Z,99.07
2023-01-05T12:28:41.514Z,98.73
2023-01-05T12:34:23.789Z,98.33
2023-01-05T12:37:03.371Z,98.07
2023-01-05T12:39:45.974Z,98.07
2023-01-05T12:42:27.145Z,97.39
2023-01-05T12:45:19.793Z,97.74
2023-01-05T12:47:57.146Z,97.10
2023-01-05T12:50:30.248Z,97.30
2023-01-05T12:53:02.457Z,97.67
2023-01-05T12:55:33.152Z,97.83
2023-01-05T12:58:03.606Z,98.78
2023-01-05T13:00:34.777Z,98.13
2023-01-05T13:03:05.316Z,97.36
2023-01-05T13:05:35.516Z,97.26
2023-01-05T13:08:06.635Z,97.08
2023-01-05T13:10:38.430Z,97.59
2023-01-05T13:13:09.055Z,97.93
2023-01-05T13:15:41.887Z,98.20
2023-01-05T13:18:15.165Z,97.79
2023-01-05T13:20:45.351Z,97.64
2023-01-05T13:23:16.191Z,97.04
2023-01-05T13:25:51.539Z,98.03
2023-01-05T13:28:24.569Z,97.57
2023-01-05T13:31:06.692Z,98.20
2023-01-05T13:33:46.849Z,98.10
2023-01-05T13:36:26.821Z,98.17
2023-01-05T13:39:17.022Z,98.30
2023-01-05T13:42:06.178Z,98.47
2023-01-05T13:44:50.919Z,96.84
2023-01-05T13:47:27.794Z,96.56
2023-01-05T13:50:35.211Z,96.37
2023-01-05T13:53:07.882Z,96.40
2023-01-05T13:55:39.133Z,96.83
2023-01-05T13:58:07.335Z,95.81
2023-01-05T14:00:36.986Z,96.68
2023-01-05T14:03:07.860Z,95.72
2023-01-05T14:05:49.399Z,95.58
2023-01-05T14:08:21.821Z,96.26
2023-01-05T14:11:07.762Z,96.99
2023-01-05T14:13:43.194Z,97.61
2023-01-05T14:16:49.120Z,96.63
2023-01-05T14:19:22.411Z,95.79
2023-01-05T14:22:06.199Z,96.46
2023-01-05T14:24:36.667Z,98.06
2023-01-05T14:27:09.350Z,98.55
2023-01-05T14:30:30.863Z,98.26
2023-01-05T14:33:05.558Z,98.91
2023-01-05T14:35:37.294Z,99.73
2023-01-05T14:38:09.193Z,100.00
2023-01-05T14:40:42.148Z,100.00
2023-01-05T14:43:23.827Z,100.00
2023-01-05T14:46:01.247Z,100.00
2023-01-05T14:48:30.939Z,100.00
2023-01-05T14:51:18.558Z,100.00
2023-01-05T14:53:48.469Z,100.00
2023-01-05T14:56:19.405Z,100.00
2023-01-05T14:58:57.623Z,100.00
2023-01-05T15:01:28.157Z,100.00
2023-01-05T15:03:58.614Z,100.00
2023-01-05T15:06:31.375Z,100.00
2023-01-05T15:09:34.977Z,100.00
2023-01-05T15:12:11.770Z,100.00
2023-01-05T15:15:09.136Z,100.00
2023-01-05T15:18:00.864Z,100.00
2023-01-05T15:20:49.220Z,100.00
2023-01-05T15:23:30.811Z,100.00
2023-01-05T15:26:21.189Z,100.00
2023-01-05T15:29:07.207Z,100.00
2023-01-05T15:31:38.665Z,100.00
2023-01-05T15:34:15.041Z,100.00
2023-01-05T15:36:47.595Z,100.00
2023-01-05T15:39:26.558Z,100.00
2023-01-05T15:41:57.649Z,100.00
2023-01-05T15:44:28.612Z,100.00
2023-01-05T15:46:56.230Z,100.00
2023-01-05T15:49:26.195Z,100.00
2023-01-05T15:51:55.639Z,100.00
2023-01-05T15:54:24.554Z,100.00
2023-01-05T15:56:52.226Z,99.98
2023-01-05T15:59:27.176Z,99.68
2023-01-05T16:01:54.769Z,99.00
2023-01-05T16:04:22.643Z,98.19
2023-01-05T16:06:52.224Z,97.42
2023-01-05T16:09:24.655Z,98.36
2023-01-05T16:11:55.298Z,98.29
2023-01-05T16:14:28.881Z,98.18
2023-01-05T16:17:00.114Z,98.70
2023-01-05T16:19:30.840Z,99.86
2023-01-05T16:22:01.363Z,99.69
2023-01-05T16:24:33.831Z,99.14
2023-01-05T16:27:03.567Z,100.00
2023-01-05T16:29:39.108Z,99.58
2023-01-05T16:32:36.644Z,100.00
2023-01-05T16:35:24.586Z,99.80
2023-01-05T16:38:15.962Z,98.87
2023-01-05T16:41:00.123Z,98.71
2023-01-05T16:43:32.161Z,98.58
2023-01-05T16:46:31.093Z,100.00
2023-01-05T16:49:01.072Z,100.00
2023-01-05T16:51:39.870Z,99.47
2023-01-05T16:54:12.566Z,99.35
2023-01-05T16:56:52.286Z,99.15
2023-01-05T16:59:44.145Z,99.34
2023-01-05T17:02:39.969Z,99.35
2023-01-05T17:05:08.245Z,99.05
2023-01-05T17:07:38.670Z,99.55
2023-01-05T17:10:07.361Z,99.23
2023-01-05T17:12:34.895Z,99.39
2023-01-05T17:15:03.941Z,99.50
2023-01-05T17:17:32.795Z,99.70
2023-01-05T17:20:00.294Z,100.00
2023-01-05T17:22:28.816Z,100.00
2023-01-05T17:24:56.289Z,100.00
2023-01-05T17:27:23.753Z,100.00
2023-01-05T17:29:51.903Z,100.00
2023-01-05T17:32:20.386Z,100.00
2023-01-05T17:34:49.237Z,100.00
2023-01-05T17:37:17.759Z,100.00
2023-01-05T17:39:45.241Z,100.00
2023-01-05T17:42:30.046Z,100.00
2023-01-05T17:44:57.637Z,100.00
2023-01-05T17:47:25.158Z,100.00
2023-01-05T17:49:54.040Z,100.00
2023-01-05T17:52:21.578Z,100.00
2023-01-05T17:54:49.120Z,100.00
2023-01-05T17:57:16.597Z,100.00
2023-01-05T17:59:44.571Z,100.00
2023-01-05T18:02:12.097Z,100.00
2023-01-05T18:04:39.662Z,100.00
2023-01-05T18:09:40.922Z,100.00
2023-01-05T18:12:08.662Z,100.00
2023-01-05T18:17:03.689Z,100.00
2023-01-05T18:19:32.642Z,100.00
2023-01-05T18:22:01.192Z,100.00
2023-01-05T18:24:30.211Z,100.00
2023-01-05T18:26:57.666Z,100.00
2023-01-05T18:29:25.371Z,100.00
2023-01-05T18:31:53.733Z,100.00
2023-01-05T18:34:21.642Z,99.94
2023-01-05T18:36:55.619Z,99.24
2023-01-05T18:39:30.774Z,99.61
2023-01-05T18:41:58.658Z,99.30
2023-01-05T18:44:26.171Z,99.59
2023-01-05T18:46:53.642Z,99.30
2023-01-05T18:49:21.106Z,100.00
2023-01-05T18:51:51.156Z,100.00
2023-01-05T18:54:19.027Z,99.46
2023-01-05T18:56:47.864Z,99.81
2023-01-05T18:59:15.851Z,99.92
2023-01-05T19:01:43.452Z,99.02
2023-01-05T19:04:11.659Z,98.32
2023-01-05T19:06:41.951Z,98.28
2023-01-05T19:09:12.450Z,98.69
2023-01-05T19:11:44.763Z,99.44
2023-01-05T19:14:13.978Z,98.87
2023-01-05T19:16:41.443Z,99.27
2023-01-05T19:19:11.319Z,99.06
2023-01-05T19:21:40.547Z,99.23
2023-01-05T19:24:12.935Z,99.69
2023-01-05T19:26:40.434Z,100.00
2023-01-05T19:29:09.220Z,100.00
2023-01-05T19:31:38.622Z,100.00
2023-01-05T19:34:06.657Z,100.00
2023-01-05T19:36:35.504Z,100.00
2023-01-05T19:39:04.654Z,100.00
2023-01-05T19:41:32.271Z,100.00
2023-01-05T19:43:59.884Z,100.00
2023-01-05T19:46:30.035Z,100.00
2023-01-05T19:49:00.464Z,100.00
2023-01-05T19:51:29.731Z,100.00
2023-01-05T19:53:58.812Z,100.00
2023-01-05T19:56:29.823Z,100.00
2023-01-05T19:58:59.070Z,100.00
2023-01-05T20:01:27.945Z,100.00
2023-01-05T20:03:56.875Z,100.00
2023-01-05T20:06:27.648Z,100.00
2023-01-05T20:08:57.436Z,100.00
2023-01-05T20:11:39.275Z,100.00
2023-01-05T20:14:09.805Z,100.00
2023-01-05T20:16:38.075Z,100.00
2023-01-05T20:19:05.911Z,100.00
2023-01-05T20:21:35.230Z,100.00
2023-01-05T20:24:05.036Z,100.00
2023-01-05T20:26:32.561Z,100.00
2023-01-05T20:29:00.981Z,100.00
2023-01-05T20:31:29.829Z,100.00
2023-01-05T20:33:58.660Z,100.00
2023-01-05T20:36:26.895Z,100.00
2023-01-05T20:38:56.393Z,100.00
2023-01-05T20:41:26.013Z,100.00
2023-01-05T20:43:54.870Z,100.00
2023-01-05T20:46:24.268Z,100.00
2023-01-05T20:48:52.663Z,100.00
2023-01-05T20:51:22.063Z,100.00
2023-01-05T20:53:51.722Z,100.00
2023-01-05T20:56:22.415Z,100.00
2023-01-05T20:58:52.276Z,100.00
2023-01-05T21:01:20.349Z,100.00
2023-01-05T21:03:47.951Z,100.00
2023-01-05T21:06:16.934Z,100.00
2023-01-05T21:08:46.039Z,100.00
2023-01-05T21:11:15.823Z,100.00
2023-01-05T21:13:49.967Z,100.00
2023-01-05T21:16:19.621Z,100.00
2023-01-05T21:18:47.951Z,100.00
2023-01-05T21:21:20.051Z,100.00
2023-01-05T21:23:48.518Z,100.00
2023-01-05T21:26:16.621Z,100.00
2023-01-05T21:28:46.072Z,100.00
2023-01-05T21:31:18.874Z,100.00
2023-01-05T21:33:47.488Z,100.00
2023-01-05T21:36:17.174Z,100.00
2023-01-05T21:39:02.347Z,100.00
2023-01-05T21:41:51.130Z,100.00
2023-01-05T21:44:20.516Z,100.00
2023-01-05T21:46:50.640Z,100.00
2023-01-05T21:49:19.072Z,100.00
2023-01-05T21:52:04.618Z,100.00
2023-01-05T21:54:49.709Z,100.00
2023-01-05T21:57:17.892Z,100.00
2023-01-05T21:59:46.987Z,100.00
2023-01-05T22:02:16.881Z,100.00
2023-01-05T22:04:44.888Z,100.00
2023-01-05T22:07:12.469Z,100.00
2023-01-05T22:09:40.050Z,100.00
2023-01-05T22:12:08.701Z,100.00
2023-01-05T22:14:36.911Z,100.00
2023-01-05T22:17:07.350Z,100.00
2023-01-05T22:19:35.184Z,100.00
2023-01-05T22:22:02.839Z,100.00
2023-01-05T22:24:30.428Z,100.00
2023-01-05T22:26:57.988Z,100.00
2023-01-05T22:29:25.561Z,100.00
2023-01-05T22:31:53.549Z,100.00
2023-01-05T22:34:22.546Z,100.00
2023-01-05T22:36:50.094Z,100.00
2023-01-05T22:39:17.707Z,100.00
2023-01-05T22:41:46.290Z,100.00
2023-01-05T22:44:14.031Z,100.00
2023-01-05T22:59:19.799Z,100.00
2023-01-05T23:01:47.656Z,100.00
2023-01-05T23:04:15.605Z,100.00
2023-01-05T23:06:43.725Z,100.00
2023-01-05T23:09:14.868Z,100.00
2023-01-05T23:11:43.496Z,100.00
2023-01-05T23:14:12.990Z,100.00
2023-01-05T23:16:41.951Z,100.00
2023-01-05T23:19:10.179Z,100.00
2023-01-05T23:21:38.071Z,100.00
2023-01-05T23:24:06.151Z,100.00
2023-01-05T23:26:33.662Z,100.00
2023-01-05T23:29:01.395Z,100.00
2023-01-05T23:31:28.951Z,100.00
2023-01-05T23:33:58.176Z,100.00
2023-01-05T23:36:26.089Z,100.00
2023-01-05T23:38:53.668Z,100.00
2023-01-05T23:41:21.217Z,100.00
2023-01-05T23:43:48.831Z,100.00
2023-01-05T23:46:19.913Z,100.00
2023-01-05T23:48:47.951Z,100.00
2023-01-05T23:51:18.056Z,100.00
2023-01-05T23:53:47.120Z,100.00
2023-01-05T23:56:16.102Z,100.00
2023-01-05T23:58:44.136Z,100.00
